Time;durP1;ratioP1;P1;durP2;ratioP2;P2;SDS_P1;SDS_P2;PMS_P1;PMS_P2;Temp;Humidity;BMP_temperature;BMP_pressure;BME280_temperature;BME280_humidity;BME280_pressure;Samples;Min_cycle;Max_cycle;Signal;HPM_P1;HPM_P2
2022/10/21 00:00:54;;;;;;;37.22;24.60;;;11.20;99.90;;;;;;4333437;28;10000414;-73
2022/10/21 00:03:20;;;;;;;37.83;25.02;;;11.30;99.90;;;;;;5028127;28;20018;-73
2022/10/21 00:05:47;;;;;;;36.05;23.48;;;11.40;99.90;;;;;;5030316;28;20029;-73
2022/10/21 00:08:13;;;;;;;30.75;22.75;;;11.40;99.90;;;;;;5021416;28;20052;-73
2022/10/21 00:10:38;;;;;;;34.65;23.48;;;11.40;99.90;;;;;;5030572;28;20025;-72
2022/10/21 00:13:04;;;;;;;31.38;22.50;;;11.40;99.90;;;;;;5017253;28;20059;-73
2022/10/21 00:15:30;;;;;;;27.55;20.70;;;11.50;99.90;;;;;;5017771;28;20041;-73
2022/10/21 00:17:55;;;;;;;26.48;19.63;;;11.40;99.90;;;;;;5020949;28;20232;-73
2022/10/21 00:20:21;;;;;;;32.63;22.48;;;11.40;99.90;;;;;;5018595;28;20477;-72
2022/10/21 00:22:47;;;;;;;26.55;21.10;;;11.40;99.90;;;;;;5026706;28;20183;-72
2022/10/21 00:25:12;;;;;;;34.15;22.67;;;11.50;99.90;;;;;;5010498;28;20446;-72
2022/10/21 00:27:38;;;;;;;31.48;23.35;;;11.50;99.90;;;;;;5017247;28;20041;-72
2022/10/21 00:30:05;;;;;;;33.15;23.85;;;11.50;99.90;;;;;;5027679;28;20045;-72
2022/10/21 00:32:31;;;;;;;29.33;22.73;;;11.50;99.90;;;;;;5013732;28;20527;-72
2022/10/21 00:34:56;;;;;;;25.92;21.13;;;11.50;99.90;;;;;;5019546;28;20042;-72
2022/10/21 00:37:22;;;;;;;33.55;23.35;;;11.60;99.90;;;;;;5015145;28;20121;-72
2022/10/21 00:39:47;;;;;;;32.97;22.10;;;11.50;99.90;;;;;;5015168;28;20244;-72
2022/10/21 00:42:19;;;;;;;36.20;23.70;;;11.50;99.90;;;;;;5009462;28;20172;-72
2022/10/21 00:45:03;;;;;;;30.98;20.50;;;11.60;99.90;;;;;;5010670;28;20034;-72
2022/10/21 00:47:30;;;;;;;28.23;20.92;;;11.50;99.90;;;;;;5015275;28;20304;-72
2022/10/21 00:50:00;;;;;;;28.40;21.35;;;11.60;99.90;;;;;;5017243;28;20033;-73
2022/10/21 00:52:28;;;;;;;27.15;20.67;;;11.60;99.90;;;;;;5019782;28;20025;-72
2022/10/21 00:54:55;;;;;;;28.40;20.75;;;11.60;99.90;;;;;;5022844;28;20100;-73
2022/10/21 00:57:23;;;;;;;32.88;22.73;;;11.60;99.90;;;;;;5016664;28;21031;-73
2022/10/21 00:59:56;;;;;;;39.05;22.30;;;11.60;99.90;;;;;;5026232;28;20037;-73
2022/10/21 01:08:48;;;;;;;33.67;24.23;;;11.70;99.90;;;;;;5025262;28;20377;-72
2022/10/21 01:11:16;;;;;;;40.97;24.02;;;11.70;99.90;;;;;;5023138;28;20034;-73
2022/10/21 01:14:00;;;;;;;33.85;22.88;;;11.70;99.90;;;;;;5030630;28;20033;-73
2022/10/21 01:16:48;;;;;;;36.97;25.75;;;11.70;99.90;;;;;;5036372;28;20513;-73
2022/10/21 01:19:14;;;;;;;35.72;25.27;;;11.70;99.90;;;;;;5032415;28;20044;-73
2022/10/21 01:22:13;;;;;;;42.13;26.77;;;11.70;99.90;;;;;;5034415;28;20018;-73
2022/10/21 01:25:18;;;;;;;35.25;25.10;;;11.70;99.90;;;;;;5029368;28;20332;-73
2022/10/21 01:28:02;;;;;;;38.05;25.30;;;11.70;99.90;;;;;;5036516;28;20083;-73
2022/10/21 01:30:37;;;;;;;36.33;24.90;;;11.60;99.90;;;;;;5033566;28;20080;-73
2022/10/21 01:33:30;;;;;;;37.60;24.45;;;11.70;99.90;;;;;;5036732;28;20052;-73
2022/10/21 01:36:32;;;;;;;35.42;24.60;;;11.70;99.90;;;;;;5029870;28;20156;-72
2022/10/21 01:39:24;;;;;;;42.92;26.25;;;11.70;99.90;;;;;;5037028;28;20434;-73
2022/10/21 01:42:01;;;;;;;36.10;24.83;;;11.70;99.90;;;;;;5024911;28;20202;-72
2022/10/21 01:44:33;;;;;;;36.97;25.77;;;11.70;99.90;;;;;;5027425;28;20087;-73
2022/10/21 01:47:07;;;;;;;37.60;25.27;;;11.70;99.90;;;;;;5037668;28;20116;-73
2022/10/21 01:49:48;;;;;;;31.88;24.45;;;11.70;99.90;;;;;;5034320;28;20017;-72
2022/10/21 01:52:15;;;;;;;33.58;23.60;;;11.70;99.90;;;;;;5025661;28;20309;-73
2022/10/21 01:54:44;;;;;;;36.58;24.27;;;11.70;99.90;;;;;;5025776;28;20014;-73
2022/10/21 01:57:14;;;;;;;33.17;22.00;;;11.70;99.90;;;;;;5027629;28;20106;-73
2022/10/21 01:59:42;;;;;;;25.80;19.45;;;11.70;99.90;;;;;;5027798;28;20028;-73
2022/10/21 02:02:10;;;;;;;31.77;21.58;;;11.70;99.90;;;;;;5028098;28;20301;-73
2022/10/21 02:04:39;;;;;;;32.28;22.02;;;11.70;99.90;;;;;;5026589;28;20063;-73
2022/10/21 02:07:05;;;;;;;30.42;20.52;;;11.70;99.90;;;;;;5031252;28;20534;-73
2022/10/21 02:09:31;;;;;;;27.48;20.67;;;11.70;99.90;;;;;;5029027;28;20029;-73
2022/10/21 02:12:00;;;;;;;28.13;19.83;;;11.70;99.90;;;;;;5022917;28;20090;-73
2022/10/21 02:14:43;;;;;;;28.45;21.40;;;11.70;99.90;;;;;;5031631;28;20025;-73
2022/10/21 02:17:12;;;;;;;29.13;21.05;;;11.70;99.90;;;;;;5027612;28;20035;-73
2022/10/21 02:19:38;;;;;;;29.88;20.98;;;11.70;99.90;;;;;;5027558;28;20033;-73
2022/10/21 02:22:06;;;;;;;28.75;20.30;;;11.70;99.90;;;;;;5025574;28;20028;-73
2022/10/21 02:24:46;;;;;;;30.05;20.33;;;11.70;99.90;;;;;;5031928;28;20525;-73
2022/10/21 02:27:11;;;;;;;25.15;19.00;;;11.70;99.90;;;;;;5031684;28;20029;-73
2022/10/21 02:29:41;;;;;;;31.25;22.58;;;11.80;99.90;;;;;;5030875;28;20095;-73
2022/10/21 02:32:40;;;;;;;28.63;20.50;;;11.70;99.90;;;;;;5031660;28;20025;-73
2022/10/21 02:35:27;;;;;;;30.90;21.73;;;11.80;99.90;;;;;;5024651;28;20030;-73
2022/10/21 02:38:01;;;;;;;28.02;19.75;;;11.80;99.90;;;;;;5031206;28;20022;-73
2022/10/21 02:40:42;;;;;;;27.13;19.77;;;11.80;99.90;;;;;;5032371;28;20422;-73
2022/10/21 02:43:16;;;;;;;27.75;19.90;;;11.80;99.90;;;;;;5029755;28;20489;-73
2022/10/21 02:45:44;;;;;;;24.83;19.05;;;11.80;99.90;;;;;;5033261;28;20037;-73
2022/10/21 02:48:10;;;;;;;25.38;18.80;;;11.90;99.90;;;;;;5027553;28;20147;-73
2022/10/21 02:50:35;;;;;;;24.23;18.23;;;11.80;99.90;;;;;;5033789;28;20601;-73
2022/10/21 02:53:01;;;;;;;22.08;17.48;;;11.90;99.90;;;;;;5033178;28;20545;-73
2022/10/21 02:55:26;;;;;;;22.95;16.95;;;11.80;99.90;;;;;;5035210;28;20312;-73
2022/10/21 02:57:52;;;;;;;25.20;17.67;;;11.80;99.90;;;;;;5027418;28;20112;-72
2022/10/21 03:00:18;;;;;;;25.58;18.42;;;11.80;99.90;;;;;;5031466;28;20063;-73
2022/10/21 03:02:43;;;;;;;29.77;21.77;;;11.80;99.90;;;;;;5028285;28;20021;-73
2022/10/21 03:05:11;;;;;;;30.42;20.33;;;11.90;99.90;;;;;;5030752;28;20037;-73
2022/10/21 03:07:37;;;;;;;28.15;20.48;;;11.90;99.90;;;;;;5026513;28;20112;-73
2022/10/21 03:10:03;;;;;;;27.73;20.10;;;11.90;99.90;;;;;;5032682;28;20363;-73
2022/10/21 03:12:29;;;;;;;26.80;19.38;;;11.90;99.90;;;;;;5027613;28;20489;-72
2022/10/21 03:14:54;;;;;;;27.25;20.02;;;12.00;99.90;;;;;;5032095;28;20037;-72
2022/10/21 03:17:20;;;;;;;40.25;22.75;;;12.00;99.90;;;;;;5027717;28;20052;-73
2022/10/21 03:19:46;;;;;;;31.23;22.33;;;12.00;99.90;;;;;;5035184;28;20490;-72
2022/10/21 03:22:11;;;;;;;35.42;23.23;;;12.00;99.90;;;;;;5034851;28;20025;-73
2022/10/21 03:24:37;;;;;;;37.42;24.88;;;12.00;99.90;;;;;;5027485;28;20095;-72
2022/10/21 03:27:03;;;;;;;35.72;24.60;;;12.00;99.90;;;;;;5032412;28;20039;-73
2022/10/21 03:29:28;;;;;;;41.83;26.17;;;12.00;99.90;;;;;;5026110;28;20394;-72
2022/10/21 03:31:54;;;;;;;35.88;24.02;;;12.00;99.90;;;;;;5029857;28;20033;-73
2022/10/21 03:34:20;;;;;;;37.17;23.98;;;12.00;99.90;;;;;;5024702;28;20036;-73
2022/10/21 03:36:45;;;;;;;35.42;24.73;;;12.00;99.90;;;;;;5026464;28;20039;-73
2022/10/21 03:39:11;;;;;;;33.00;23.75;;;12.10;99.90;;;;;;5034154;28;20032;-73
2022/10/21 03:41:37;;;;;;;39.70;25.08;;;12.10;99.90;;;;;;5035103;28;20025;-73
2022/10/21 03:44:02;;;;;;;34.70;24.52;;;12.10;99.90;;;;;;5030877;28;20485;-73
2022/10/21 03:46:28;;;;;;;33.63;23.58;;;12.10;99.90;;;;;;5031505;28;20083;-73
2022/10/21 03:48:54;;;;;;;32.60;22.75;;;12.10;99.90;;;;;;5030763;28;20533;-73
2022/10/21 03:51:19;;;;;;;35.65;24.50;;;12.10;99.90;;;;;;5035510;28;20476;-73
2022/10/21 03:53:45;;;;;;;38.67;24.75;;;12.10;99.90;;;;;;5016673;28;20064;-73
2022/10/21 03:56:11;;;;;;;33.70;23.60;;;12.10;99.90;;;;;;5026857;28;20049;-73
2022/10/21 03:58:37;;;;;;;37.67;24.60;;;12.10;99.90;;;;;;5024734;28;20030;-73
2022/10/21 04:01:03;;;;;;;33.85;22.52;;;12.10;99.90;;;;;;5035012;28;20547;-73
2022/10/21 04:03:29;;;;;;;32.45;21.48;;;12.10;99.90;;;;;;5018932;28;20033;-72
2022/10/21 04:05:54;;;;;;;31.95;22.95;;;12.10;99.90;;;;;;5026369;28;20056;-72
2022/10/21 04:08:20;;;;;;;32.13;20.77;;;12.20;99.90;;;;;;5029792;28;20048;-73
2022/10/21 04:10:46;;;;;;;33.88;23.00;;;12.10;99.90;;;;;;5023649;28;20029;-72
2022/10/21 04:13:12;;;;;;;32.88;23.15;;;12.20;99.90;;;;;;5023870;28;20029;-72
2022/10/21 04:15:38;;;;;;;33.45;22.42;;;12.20;99.90;;;;;;5030369;28;20612;-72
2022/10/21 04:18:05;;;;;;;29.27;21.80;;;12.10;99.90;;;;;;5026325;28;20092;-72
2022/10/21 04:20:31;;;;;;;31.58;21.85;;;12.20;99.90;;;;;;5034688;28;20029;-72
2022/10/21 04:22:57;;;;;;;26.60;18.98;;;12.20;99.90;;;;;;5024129;28;20481;-73
2022/10/21 04:25:22;;;;;;;25.88;19.70;;;12.10;99.90;;;;;;5028716;28;20049;-73
2022/10/21 04:27:48;;;;;;;26.00;19.70;;;12.20;99.90;;;;;;5023159;28;20022;-73
2022/10/21 04:30:13;;;;;;;24.85;18.83;;;12.20;99.90;;;;;;5037887;28;20067;-73
2022/10/21 04:32:39;;;;;;;28.63;20.25;;;12.10;99.90;;;;;;5021310;28;20215;-73
2022/10/21 04:35:05;;;;;;;24.67;19.25;;;12.20;99.90;;;;;;5025033;28;20017;-73
2022/10/21 04:37:31;;;;;;;26.50;17.92;;;12.20;99.90;;;;;;5028930;28;20689;-73
2022/10/21 04:39:56;;;;;;;22.02;17.40;;;12.20;99.90;;;;;;5025601;28;20521;-73
2022/10/21 04:42:22;;;;;;;23.80;16.92;;;12.20;99.90;;;;;;5026366;28;20108;-73
2022/10/21 04:44:48;;;;;;;28.65;20.30;;;12.20;99.90;;;;;;5024360;28;20036;-73
2022/10/21 04:47:14;;;;;;;30.13;20.92;;;12.20;99.90;;;;;;5034758;28;20310;-73
2022/10/21 04:49:39;;;;;;;25.70;19.90;;;12.20;99.90;;;;;;5028409;28;20651;-73
2022/10/21 04:52:05;;;;;;;27.45;18.42;;;12.20;99.90;;;;;;5030367;28;20135;-73
2022/10/21 04:54:31;;;;;;;31.23;17.77;;;12.20;99.90;;;;;;5033058;28;20025;-73
2022/10/21 04:56:56;;;;;;;24.63;17.38;;;12.30;99.90;;;;;;5030808;28;20025;-73
2022/10/21 04:59:22;;;;;;;27.80;16.80;;;12.40;99.90;;;;;;5031354;28;20036;-73
2022/10/21 05:01:47;;;;;;;26.75;18.42;;;12.40;99.90;;;;;;5032141;28;20501;-73
2022/10/21 05:04:13;;;;;;;25.42;17.42;;;12.40;99.90;;;;;;5026760;28;20127;-73
2022/10/21 05:06:39;;;;;;;28.23;18.73;;;12.40;99.90;;;;;;5023553;28;20729;-73
2022/10/21 05:09:05;;;;;;;25.30;16.77;;;12.50;99.90;;;;;;5031180;28;20022;-73
2022/10/21 05:11:31;;;;;;;27.02;18.75;;;12.50;99.90;;;;;;5027518;28;20076;-73
2022/10/21 05:13:56;;;;;;;26.13;19.17;;;12.50;99.90;;;;;;5027351;28;20030;-73
2022/10/21 05:16:22;;;;;;;27.27;18.05;;;12.50;99.90;;;;;;5029446;28;20208;-73
2022/10/21 05:18:48;;;;;;;28.95;18.95;;;12.50;99.90;;;;;;5024578;28;20041;-72
2022/10/21 05:21:14;;;;;;;27.85;18.38;;;12.50;99.90;;;;;;5034314;28;20036;-72
2022/10/21 05:23:40;;;;;;;29.40;18.15;;;12.50;99.90;;;;;;5027628;28;20029;-72
2022/10/21 05:26:06;;;;;;;22.67;16.27;;;12.50;99.90;;;;;;5039761;28;20057;-73
2022/10/21 05:28:31;;;;;;;27.45;17.90;;;12.50;99.90;;;;;;5035746;28;20032;-73
2022/10/21 05:30:57;;;;;;;30.02;16.65;;;12.60;99.90;;;;;;5029547;28;20553;-73
2022/10/21 05:33:22;;;;;;;26.60;17.55;;;12.60;99.90;;;;;;5032499;28;20028;-73
2022/10/21 05:36:00;;;;;;;23.58;16.02;;;12.60;99.90;;;;;;5033301;28;20294;-73
2022/10/21 05:38:27;;;;;;;23.98;16.23;;;12.60;99.90;;;;;;5034778;28;20025;-73
2022/10/21 05:40:53;;;;;;;26.48;16.55;;;12.60;99.90;;;;;;5030970;28;20382;-74
2022/10/21 05:43:18;;;;;;;28.25;15.35;;;12.60;99.90;;;;;;5023576;28;20033;-74
2022/10/21 05:45:44;;;;;;;27.00;15.98;;;12.60;99.90;;;;;;5028082;28;20025;-74
2022/10/21 05:48:10;;;;;;;21.75;15.65;;;12.60;99.90;;;;;;5037485;28;20478;-74
2022/10/21 05:50:35;;;;;;;26.80;16.45;;;12.70;99.90;;;;;;5033317;28;20044;-74
2022/10/21 05:53:01;;;;;;;28.13;16.30;;;12.70;99.90;;;;;;5033731;28;20025;-74
2022/10/21 05:55:26;;;;;;;34.20;18.48;;;12.70;99.90;;;;;;5033152;28;20081;-74
2022/10/21 05:57:52;;;;;;;25.95;16.40;;;12.70;99.90;;;;;;5030454;28;20022;-74
2022/10/21 06:00:18;;;;;;;25.35;17.00;;;12.80;99.90;;;;;;5035701;28;20174;-74
2022/10/21 06:02:43;;;;;;;27.23;16.55;;;12.80;99.90;;;;;;5023720;28;20049;-74
2022/10/21 06:05:09;;;;;;;26.52;15.63;;;12.80;99.90;;;;;;5035453;28;20148;-74
2022/10/21 06:07:35;;;;;;;26.10;15.98;;;12.80;99.90;;;;;;5031736;28;20629;-74
2022/10/21 06:10:01;;;;;;;26.15;15.88;;;12.80;99.90;;;;;;5039916;28;20070;-74
2022/10/21 06:12:26;;;;;;;25.90;15.52;;;12.80;99.90;;;;;;5026507;28;20013;-74
2022/10/21 06:14:52;;;;;;;27.75;15.23;;;12.80;99.90;;;;;;5027865;28;20645;-74
2022/10/21 06:17:18;;;;;;;26.50;15.88;;;12.80;99.90;;;;;;5027230;28;20029;-74
2022/10/21 06:19:44;;;;;;;27.58;15.35;;;12.80;99.90;;;;;;5038818;28;20041;-74
2022/10/21 06:22:10;;;;;;;28.30;15.02;;;12.90;99.90;;;;;;5032511;28;20385;-74
2022/10/21 06:24:35;;;;;;;21.63;15.05;;;12.80;99.90;;;;;;5031742;28;20026;-74
2022/10/21 06:27:01;;;;;;;24.38;15.07;;;12.80;99.90;;;;;;5037798;28;20025;-74
2022/10/21 06:29:27;;;;;;;23.23;15.57;;;12.90;99.90;;;;;;5024343;28;20056;-74
2022/10/21 06:31:52;;;;;;;24.77;15.45;;;12.90;99.90;;;;;;5026143;28;20417;-73
2022/10/21 06:34:18;;;;;;;27.40;16.25;;;12.90;99.90;;;;;;5029211;28;20483;-74
2022/10/21 06:36:44;;;;;;;25.58;16.05;;;12.90;99.90;;;;;;5031867;28;20023;-74
2022/10/21 06:39:09;;;;;;;26.70;16.35;;;12.90;99.90;;;;;;5025205;28;20530;-73
2022/10/21 06:41:35;;;;;;;26.05;15.30;;;13.00;99.90;;;;;;5024460;28;20061;-74
2022/10/21 06:44:01;;;;;;;28.45;16.83;;;12.90;99.90;;;;;;5035524;28;20072;-74
2022/10/21 06:46:26;;;;;;;26.42;16.13;;;13.00;99.90;;;;;;5045588;28;20032;-74
2022/10/21 06:48:52;;;;;;;26.77;16.13;;;13.00;99.90;;;;;;5039398;28;20039;-74
2022/10/21 06:51:20;;;;;;;25.50;14.98;;;13.00;99.90;;;;;;5036334;28;20034;-74
2022/10/21 06:53:50;;;;;;;25.38;15.23;;;13.10;99.90;;;;;;5034226;28;20090;-74
2022/10/21 06:56:18;;;;;;;25.98;15.70;;;13.10;99.90;;;;;;5028363;28;20490;-74
2022/10/21 06:58:46;;;;;;;30.80;16.17;;;13.10;99.90;;;;;;5031545;28;20385;-74
2022/10/21 07:01:15;;;;;;;27.63;15.38;;;13.10;99.90;;;;;;5041022;28;20112;-74
2022/10/21 07:03:41;;;;;;;26.05;15.43;;;13.10;99.90;;;;;;5045627;28;20033;-74
2022/10/21 07:06:06;;;;;;;20.05;14.02;;;13.10;99.90;;;;;;5045088;28;20033;-74
2022/10/21 07:08:33;;;;;;;18.77;14.02;;;13.10;99.90;;;;;;5039947;28;20048;-74
2022/10/21 07:10:59;;;;;;;21.88;14.05;;;13.10;99.90;;;;;;5035414;28;20543;-74
2022/10/21 07:13:25;;;;;;;28.25;15.60;;;13.10;99.90;;;;;;5031698;28;20133;-74
2022/10/21 07:16:24;;;;;;;24.30;14.88;;;13.20;99.90;;;;;;5030842;28;20124;-74
2022/10/21 07:18:50;;;;;;;22.20;13.80;;;13.10;99.90;;;;;;5027439;28;20032;-74
2022/10/21 07:21:17;;;;;;;20.40;14.10;;;13.10;99.90;;;;;;5026803;28;20029;-74
2022/10/21 07:23:45;;;;;;;26.17;14.65;;;13.20;99.90;;;;;;5025581;28;20489;-74
2022/10/21 07:26:10;;;;;;;24.63;15.10;;;13.10;99.90;;;;;;5031409;28;20033;-74
2022/10/21 07:28:37;;;;;;;26.02;14.57;;;13.20;99.90;;;;;;5027873;28;20052;-74
2022/10/21 07:31:04;;;;;;;23.08;14.82;;;13.10;99.90;;;;;;5041784;28;20038;-74
2022/10/21 07:33:31;;;;;;;22.45;14.88;;;13.10;99.90;;;;;;5044388;28;20029;-74
2022/10/21 07:36:12;;;;;;;19.13;13.90;;;13.20;99.90;;;;;;5042787;28;20036;-74
2022/10/21 07:38:40;;;;;;;23.05;15.20;;;13.20;99.90;;;;;;5040420;28;20033;-73
2022/10/21 07:41:05;;;;;;;25.25;14.60;;;13.20;99.90;;;;;;5037975;28;20088;-74
2022/10/21 07:43:32;;;;;;;24.17;14.90;;;13.20;99.90;;;;;;5040016;28;20044;-74
2022/10/21 07:45:58;;;;;;;25.40;14.68;;;13.20;99.90;;;;;;5035324;28;20436;-74
2022/10/21 07:48:25;;;;;;;28.00;15.43;;;13.20;99.90;;;;;;5031555;28;20034;-73
2022/10/21 07:50:50;;;;;;;25.35;15.63;;;13.20;99.90;;;;;;5046983;28;20092;-73
2022/10/21 07:53:17;;;;;;;25.17;16.92;;;13.20;99.90;;;;;;5045013;28;20036;-73
2022/10/21 07:55:43;;;;;;;26.55;16.35;;;13.20;99.90;;;;;;5029860;28;20410;-73
2022/10/21 07:58:08;;;;;;;26.85;15.85;;;13.20;99.90;;;;;;5046925;28;20033;-74
2022/10/21 08:00:34;;;;;;;23.85;15.80;;;13.20;99.90;;;;;;5030419;28;20103;-74
2022/10/21 08:03:00;;;;;;;25.77;15.68;;;13.30;99.90;;;;;;5026545;28;20025;-74
2022/10/21 08:05:26;;;;;;;24.35;14.77;;;13.30;99.90;;;;;;5038466;28;20040;-74
2022/10/21 08:07:52;;;;;;;26.80;15.93;;;13.30;99.90;;;;;;5026557;28;20091;-74
2022/10/21 08:10:17;;;;;;;20.50;14.77;;;13.30;99.90;;;;;;5023474;28;20020;-75
2022/10/21 08:12:43;;;;;;;25.48;15.55;;;13.30;99.90;;;;;;5024462;28;20024;-75
2022/10/21 08:15:09;;;;;;;27.00;16.15;;;13.30;99.90;;;;;;5031076;28;20490;-75
2022/10/21 08:17:35;;;;;;;26.02;15.35;;;13.30;99.90;;;;;;5026869;28;20033;-75
2022/10/21 08:20:00;;;;;;;25.70;15.10;;;13.40;99.90;;;;;;5046079;28;20041;-75
2022/10/21 08:22:26;;;;;;;25.48;15.95;;;13.40;99.90;;;;;;5030454;28;20022;-75
2022/10/21 08:24:52;;;;;;;25.17;16.02;;;13.30;99.90;;;;;;5044256;28;20354;-75
2022/10/21 08:27:17;;;;;;;22.00;15.95;;;13.30;99.90;;;;;;5042392;28;20018;-75
2022/10/21 08:29:43;;;;;;;23.60;15.80;;;13.40;99.90;;;;;;5026921;28;20108;-76
2022/10/21 08:32:08;;;;;;;26.00;16.92;;;13.40;99.90;;;;;;5022543;28;20567;-76
2022/10/21 08:34:34;;;;;;;26.70;16.35;;;13.40;99.90;;;;;;5037681;28;20022;-76
2022/10/21 08:37:00;;;;;;;20.15;14.68;;;13.40;99.90;;;;;;5030308;28;20076;-75
2022/10/21 08:39:26;;;;;;;25.08;15.32;;;13.40;99.90;;;;;;5029415;28;20025;-75
2022/10/21 08:42:13;;;;;;;23.60;15.85;;;13.40;99.90;;;;;;5023837;28;20993;-76
2022/10/21 08:44:47;;;;;;;27.15;17.10;;;13.40;99.90;;;;;;5035821;28;20029;-76
2022/10/21 08:47:45;;;;;;;21.63;16.05;;;13.40;99.90;;;;;;5029488;28;20025;-76
2022/10/21 08:50:20;;;;;;;25.73;16.35;;;13.40;99.90;;;;;;5032656;28;20026;-76
2022/10/21 08:52:49;;;;;;;21.10;15.13;;;13.50;99.90;;;;;;5024527;28;20064;-76
2022/10/21 08:55:19;;;;;;;20.88;14.73;;;13.40;99.90;;;;;;5032742;28;20057;-76
2022/10/21 08:57:46;;;;;;;21.80;15.95;;;13.50;99.90;;;;;;5033259;28;20064;-76
2022/10/21 09:00:18;;;;;;;21.20;14.50;;;13.50;99.90;;;;;;5030050;28;20038;-76
2022/10/21 09:03:12;;;;;;;29.80;14.93;;;13.50;99.90;;;;;;5044017;28;20562;-76
2022/10/21 09:06:06;;;;;;;26.00;16.35;;;13.50;99.90;;;;;;5030265;28;20030;-76
2022/10/21 09:08:47;;;;;;;26.58;15.30;;;13.60;99.90;;;;;;5029193;28;20040;-76
2022/10/21 09:11:25;;;;;;;20.90;14.90;;;13.60;99.90;;;;;;5034603;28;20013;-76
2022/10/21 09:14:00;;;;;;;25.08;15.15;;;13.60;99.90;;;;;;5035712;28;20482;-75
2022/10/21 09:16:41;;;;;;;25.42;15.68;;;13.60;99.90;;;;;;5025440;28;20029;-76
2022/10/21 09:19:25;;;;;;;24.23;15.75;;;13.60;99.90;;;;;;5026881;28;20532;-75
2022/10/21 09:22:28;;;;;;;25.40;15.50;;;13.60;99.90;;;;;;5041997;28;20516;-75
2022/10/21 09:24:59;;;;;;;26.85;16.63;;;13.60;99.90;;;;;;5030618;28;20048;-75
2022/10/21 09:27:25;;;;;;;25.60;16.20;;;13.70;99.90;;;;;;5031525;28;20260;-75
2022/10/21 09:29:59;;;;;;;22.30;16.30;;;13.70;99.90;;;;;;5037641;28;20123;-75
2022/10/21 09:32:37;;;;;;;;;;;13.70;99.90;;;;;;5033834;28;20083;-76
2022/10/21 09:35:25;;;;;;;24.50;15.40;;;13.60;99.90;;;;;;5034299;28;19909;-75
2022/10/21 09:37:55;;;;;;;19.38;14.20;;;13.60;99.90;;;;;;5035642;28;20670;-75
2022/10/21 09:40:22;;;;;;;20.77;14.20;;;13.60;99.90;;;;;;4691481;28;10000328;-75
2022/10/21 09:42:51;;;;;;;22.23;14.93;;;13.60;99.90;;;;;;5029858;28;20112;-75
2022/10/21 09:45:26;;;;;;;22.48;15.18;;;13.50;99.90;;;;;;5034189;28;20060;-75
2022/10/21 09:47:58;;;;;;;23.02;15.05;;;13.50;99.90;;;;;;5033246;28;20099;-75
2022/10/21 09:50:25;;;;;;;24.10;15.77;;;13.50;99.90;;;;;;5040788;28;20037;-74
2022/10/21 09:53:18;;;;;;;22.13;16.05;;;13.60;99.90;;;;;;5032836;28;20442;-74
2022/10/21 09:55:47;;;;;;;25.73;13.88;;;13.50;99.90;;;;;;5031828;28;20448;-75
2022/10/21 09:58:46;;;;;;;18.02;14.48;;;13.50;99.90;;;;;;5034243;28;20024;-75
2022/10/21 10:01:18;;;;;;;20.98;15.40;;;13.60;99.90;;;;;;5042159;28;20037;-75
2022/10/21 10:03:47;;;;;;;18.67;14.55;;;13.50;99.90;;;;;;5027232;28;20064;-75
2022/10/21 10:06:28;;;;;;;22.58;15.68;;;13.60;99.90;;;;;;5021188;28;20505;-75
2022/10/21 10:09:06;;;;;;;18.65;14.27;;;13.60;99.90;;;;;;5031883;28;20043;-75
2022/10/21 10:11:31;;;;;;;21.77;14.25;;;13.60;99.90;;;;;;5033109;28;20492;-75
2022/10/21 10:13:57;;;;;;;21.75;15.00;;;13.60;99.90;;;;;;5022464;28;20021;-75
2022/10/21 10:16:29;;;;;;;24.35;15.40;;;13.60;99.90;;;;;;5027216;28;20039;-74
2022/10/21 10:19:14;;;;;;;17.52;13.35;;;13.70;99.90;;;;;;5042469;28;20036;-74
2022/10/21 10:21:39;;;;;;;21.38;13.85;;;13.80;99.90;;;;;;5025785;28;20564;-74
2022/10/21 10:24:05;;;;;;;20.13;13.60;;;13.80;99.90;;;;;;5042312;28;20060;-73
2022/10/21 10:26:36;;;;;;;20.45;13.52;;;13.90;99.90;;;;;;5042618;28;20571;-73
2022/10/21 10:29:14;;;;;;;22.35;13.55;;;13.90;99.90;;;;;;5033540;28;20060;-74
2022/10/21 10:31:49;;;;;;;24.50;14.20;;;14.00;99.90;;;;;;5024006;28;20560;-75
2022/10/21 10:34:32;;;;;;;19.70;13.93;;;14.00;99.90;;;;;;5025709;28;20456;-74
2022/10/21 10:37:05;;;;;;;20.27;13.70;;;14.00;99.90;;;;;;5028687;28;20036;-75
2022/10/21 10:39:34;;;;;;;21.30;14.35;;;14.00;99.90;;;;;;5024482;28;20029;-76
2022/10/21 10:42:01;;;;;;;23.02;15.23;;;14.00;99.90;;;;;;5021370;28;20041;-76
2022/10/21 10:44:38;;;;;;;20.75;14.70;;;14.00;99.90;;;;;;5036196;28;20064;-74
2022/10/21 10:47:06;;;;;;;26.50;15.25;;;13.90;99.90;;;;;;5021681;28;20043;-75
2022/10/21 10:49:38;;;;;;;22.83;15.23;;;14.00;99.90;;;;;;5028740;28;20041;-75
2022/10/21 10:52:09;;;;;;;22.13;15.50;;;14.00;99.90;;;;;;5026529;28;20446;-75
2022/10/21 10:54:37;;;;;;;20.42;15.50;;;14.00;99.90;;;;;;5027711;28;20635;-74
2022/10/21 10:57:11;;;;;;;24.40;15.95;;;14.00;99.90;;;;;;5029282;28;20063;-73
2022/10/21 10:59:45;;;;;;;20.42;15.25;;;14.00;99.90;;;;;;5034984;28;20068;-73
2022/10/21 11:02:11;;;;;;;24.17;16.10;;;14.00;99.90;;;;;;5041302;28;20028;-74
2022/10/21 11:04:44;;;;;;;22.38;16.17;;;14.00;99.90;;;;;;5028659;28;20257;-75
2022/10/21 11:07:24;;;;;;;21.60;15.75;;;13.90;99.90;;;;;;5022340;28;20039;-74
2022/10/21 11:09:53;;;;;;;26.77;16.80;;;13.90;99.90;;;;;;5027519;28;20029;-73
2022/10/21 11:12:25;;;;;;;25.77;16.10;;;13.90;99.90;;;;;;5035349;28;20029;-73
2022/10/21 11:14:53;;;;;;;23.63;17.05;;;13.90;99.90;;;;;;5022458;28;20028;-74
2022/10/21 11:17:28;;;;;;;27.35;17.00;;;13.90;99.90;;;;;;5029847;28;20077;-74
2022/10/21 11:20:21;;;;;;;25.98;17.10;;;13.90;99.90;;;;;;5035315;28;20026;-74
2022/10/21 11:22:56;;;;;;;22.27;17.08;;;13.90;99.90;;;;;;5028457;28;20385;-75
2022/10/21 11:25:25;;;;;;;23.48;17.25;;;13.80;99.90;;;;;;5040628;28;20033;-74
2022/10/21 11:28:11;;;;;;;29.85;18.65;;;13.80;99.90;;;;;;5022622;28;20543;-74
2022/10/21 11:31:01;;;;;;;26.65;17.17;;;13.80;99.90;;;;;;5030981;28;20195;-74
2022/10/21 11:33:59;;;;;;;25.85;17.23;;;13.80;99.90;;;;;;5021967;28;20524;-74
2022/10/21 11:37:01;;;;;;;30.00;19.17;;;13.80;99.90;;;;;;5034223;28;20052;-73
2022/10/21 11:39:51;;;;;;;28.35;18.85;;;13.80;99.90;;;;;;5030662;28;20112;-73
2022/10/21 11:42:36;;;;;;;28.48;16.77;;;13.80;99.90;;;;;;5022006;28;20070;-73
2022/10/21 11:45:28;;;;;;;23.40;16.55;;;13.80;99.90;;;;;;5026147;28;20579;-73
2022/10/21 11:48:39;;;;;;;21.17;15.38;;;13.90;99.90;;;;;;5035133;28;20032;-73
2022/10/21 11:51:30;;;;;;;23.85;16.33;;;13.90;99.90;;;;;;5038501;28;20032;-73
2022/10/21 11:54:14;;;;;;;24.48;15.90;;;13.90;99.90;;;;;;5033710;28;20025;-73
2022/10/21 11:57:03;;;;;;;24.90;16.38;;;13.90;99.90;;;;;;5029135;28;20025;-74
2022/10/21 11:59:37;;;;;;;21.75;15.65;;;13.90;99.90;;;;;;5024351;28;20033;-74
2022/10/21 12:02:39;;;;;;;23.02;14.77;;;13.90;99.90;;;;;;5022295;28;20095;-74
2022/10/21 12:05:29;;;;;;;22.52;14.65;;;13.90;99.90;;;;;;5028688;28;20048;-74
2022/10/21 12:08:18;;;;;;;22.45;14.35;;;13.90;99.90;;;;;;5028450;28;21084;-74
2022/10/21 12:11:03;;;;;;;22.02;14.20;;;13.90;99.90;;;;;;5035392;28;20108;-74
2022/10/21 12:13:36;;;;;;;21.80;13.95;;;14.00;99.90;;;;;;5034249;28;20032;-75
2022/10/21 12:16:09;;;;;;;21.90;14.23;;;13.90;99.90;;;;;;5026289;28;20090;-74
2022/10/21 12:18:46;;;;;;;18.60;13.52;;;14.00;99.90;;;;;;5035279;28;20033;-75
2022/10/21 12:21:17;;;;;;;18.92;13.98;;;14.00;99.90;;;;;;5040567;28;20092;-74
2022/10/21 12:23:44;;;;;;;17.73;13.60;;;14.00;99.90;;;;;;5021327;28;20478;-74
2022/10/21 12:26:27;;;;;;;17.10;13.15;;;14.00;99.90;;;;;;5029539;28;20028;-75
2022/10/21 12:28:57;;;;;;;21.60;15.00;;;14.00;99.90;;;;;;5035264;28;20497;-74
2022/10/21 12:31:59;;;;;;;21.38;14.50;;;14.10;99.90;;;;;;5030261;28;20061;-73
2022/10/21 12:34:25;;;;;;;23.02;16.05;;;14.10;99.90;;;;;;5027936;28;20128;-72
2022/10/21 12:36:53;;;;;;;22.23;15.50;;;14.10;99.90;;;;;;5024040;28;20121;-73
2022/10/21 12:39:34;;;;;;;20.80;15.88;;;14.10;99.90;;;;;;5027805;28;20433;-74
2022/10/21 12:42:23;;;;;;;22.85;15.88;;;14.20;99.90;;;;;;5020976;28;20116;-73
2022/10/21 12:44:50;;;;;;;22.15;15.93;;;14.20;99.90;;;;;;5033455;28;20033;-73
2022/10/21 12:47:31;;;;;;;25.05;16.88;;;14.20;99.90;;;;;;5023195;28;20029;-73
2022/10/21 12:50:16;;;;;;;24.17;17.05;;;14.20;99.90;;;;;;5027964;28;20025;-72
2022/10/21 12:52:43;;;;;;;29.35;19.02;;;14.30;99.90;;;;;;5021606;28;20033;-74
2022/10/21 12:55:29;;;;;;;26.50;19.63;;;14.20;99.90;;;;;;5026870;28;20108;-73